Time;durP1;ratioP1;P1;durP2;ratioP2;P2;SDS_P1;SDS_P2;PMS_P1;PMS_P2;Temp;Humidity;BMP_temperature;BMP_pressure;BME280_temperature;BME280_humidity;BME280_pressure;Samples;Min_cycle;Max_cycle;Signal;HPM_P1;HPM_P2
2022/07/21 00:00:54;;;;;;;;;3.33;2.00;;;;;23.54;57.79;101530.31;5018898;28;45689;-66
2022/07/21 00:03:20;;;;;;;;;3.00;3.00;;;;;23.56;57.96;101519.25;5018936;28;45279;-66
2022/07/21 00:05:45;;;;;;;;;3.00;3.00;;;;;23.57;58.06;101519.06;5019344;28;45309;-65
2022/07/21 00:08:12;;;;;;;;;4.00;3.00;;;;;23.41;57.77;101488.78;5019506;28;45317;-68
2022/07/21 00:10:38;;;;;;;;;5.00;3.33;;;;;23.52;58.22;101510.69;5019282;28;45894;-65
2022/07/21 00:13:04;;;;;;;;;4.00;4.00;;;;;23.42;57.96;101495.88;5001190;28;45425;-68
2022/07/21 00:15:29;;;;;;;;;5.00;3.67;;;;;23.37;58.17;101480.22;5019163;28;45909;-66
2022/07/21 00:17:57;;;;;;;;;1.00;1.00;;;;;23.49;57.71;101502.13;5019267;28;45967;-66
2022/07/21 00:20:23;;;;;;;;;3.33;2.33;;;;;23.31;58.18;101479.19;5018973;28;45334;-67
2022/07/21 00:22:48;;;;;;;;;4.33;4.00;;;;;23.35;57.89;101483.16;5017045;28;45423;-69
2022/07/21 00:25:14;;;;;;;;;6.00;4.00;;;;;23.13;58.20;101438.31;5018686;28;45286;-66
2022/07/21 00:27:40;;;;;;;;;5.00;5.00;;;;;23.45;58.39;101481.91;5018795;28;45303;-66
2022/07/21 00:30:09;;;;;;;;;4.00;2.00;;;;;23.59;58.06;101511.53;5018296;28;45684;-67
2022/07/21 00:32:34;;;;;;;;;4.00;3.00;;;;;23.49;57.64;101483.97;5018454;28;45336;-66
2022/07/21 00:35:01;;;;;;;;;6.33;3.33;;;;;23.36;57.58;101471.25;5033774;28;45509;-66
2022/07/21 00:37:27;;;;;;;;;3.67;3.00;;;;;23.53;57.68;101500.66;5017409;28;45459;-67
2022/07/21 00:39:53;;;;;;;;;2.00;2.00;;;;;23.51;57.89;101505.47;5016660;28;47594;-66
2022/07/21 00:42:24;;;;;;;;;4.00;3.00;;;;;23.50;57.49;101511.94;5016722;28;45510;-67
2022/07/21 00:44:50;;;;;;;;;5.00;5.00;;;;;23.50;58.01;101514.66;5016204;28;45540;-66
2022/07/21 00:47:19;;;;;;;;;2.00;2.00;;;;;22.89;58.00;101415.38;5015200;28;45400;-65
2022/07/21 00:49:44;;;;;;;;;4.67;4.67;;;;;23.48;58.26;101514.03;5017557;28;45892;-65
2022/07/21 00:52:10;;;;;;;;;4.00;3.00;;;;;23.47;57.71;101512.38;5017791;28;45508;-67
2022/07/21 00:54:35;;;;;;;;;4.00;4.00;;;;;23.48;58.21;101508.63;5016551;28;45347;-66
2022/07/21 00:57:01;;;;;;;;;2.00;2.00;;;;;23.05;57.37;101441.25;5016951;28;45408;-66
2022/07/21 00:59:28;;;;;;;;;5.00;3.00;;;;;23.33;57.60;101487.94;5015679;28;46567;-66
2022/07/21 01:01:53;;;;;;;;;3.00;3.00;;;;;23.42;57.84;101504.84;5017099;28;45540;-67
2022/07/21 01:04:19;;;;;;;;;4.33;4.33;;;;;22.97;58.17;101442.25;5016981;28;45347;-65
2022/07/21 01:06:44;;;;;;;;;5.00;5.00;;;;;23.30;58.29;101493.81;5017339;28;45302;-67
2022/07/21 01:09:10;;;;;;;;;3.00;3.00;;;;;23.35;58.02;101498.59;5017713;28;46224;-66
2022/07/21 01:11:37;;;;;;;;;2.33;2.33;;;;;23.36;57.88;101503.81;5018067;28;45432;-66
2022/07/21 01:14:02;;;;;;;;;7.67;7.67;;;;;23.29;58.13;101492.13;5017179;28;45450;-66
2022/07/21 01:16:27;;;;;;;;;5.67;3.00;;;;;23.22;58.42;101491.28;5033042;28;45523;-66
2022/07/21 01:18:53;;;;;;;;;4.33;4.33;;;;;23.43;58.08;101506.53;5017580;28;45627;-65
2022/07/21 01:21:33;;;;;;;;;6.00;4.00;;;;;23.35;58.13;101499.44;5032838;28;45339;-66
2022/07/21 01:24:00;;;;;;;;;3.00;3.00;;;;;23.36;58.49;101511.13;5017861;28;45395;-67
2022/07/21 01:26:25;;;;;;;;;2.33;2.33;;;;;23.34;58.38;101508.63;5018127;28;45372;-66
2022/07/21 01:28:52;;;;;;;;;2.67;2.67;;;;;22.91;58.34;101436.84;5032926;28;45762;-66
2022/07/21 01:31:17;;;;;;;;;4.00;4.00;;;;;23.30;58.18;101501.09;5018069;28;45388;-67
2022/07/21 01:33:43;;;;;;;;;2.00;2.00;;;;;23.17;58.59;101472.09;5017838;28;45364;-66
2022/07/21 01:36:08;;;;;;;;;4.33;4.33;;;;;23.28;58.40;101495.91;5017707;28;45331;-66
2022/07/21 01:41:30;;;;;;;;;4.67;4.67;;;;;23.28;58.58;101493.19;5017572;28;45631;-66
2022/07/21 01:43:57;;;;;;;;;4.00;4.00;;;;;23.26;58.69;101487.13;5033024;28;45539;-66
2022/07/21 01:46:23;;;;;;;;;6.00;6.00;;;;;23.20;58.47;101473.56;5017485;28;45274;-66
2022/07/21 01:48:48;;;;;;;;;3.00;3.00;;;;;23.27;58.43;101475.22;5017481;28;46461;-66
2022/07/21 01:51:13;;;;;;;;;5.00;4.00;;;;;22.68;58.26;101385.72;5032650;28;45417;-67
2022/07/21 01:53:40;;;;;;;;;6.67;4.00;;;;;23.23;58.41;101490.28;5017684;28;45285;-67
2022/07/21 01:56:06;;;;;;;;;2.67;2.67;;;;;23.23;58.41;101490.28;5017746;28;45409;-66
2022/07/21 01:58:32;;;;;;;;;3.00;3.00;;;;;22.68;58.95;101410.13;5017462;28;45450;-66
2022/07/21 02:00:57;;;;;;;;;4.33;4.33;;;;;23.13;58.86;101489.84;5017356;28;45316;-66
2022/07/21 02:03:23;;;;;;;;;6.67;5.67;;;;;23.16;58.89;101497.56;5017326;28;45514;-66
2022/07/21 02:05:48;;;;;;;;;3.67;3.67;;;;;23.16;58.55;101497.56;5017194;28;45387;-67
2022/07/21 02:08:14;;;;;;;;;6.00;4.00;;;;;23.20;58.75;101506.94;5016667;28;45677;-65
2022/07/21 02:10:39;;;;;;;;;5.33;5.33;;;;;23.08;58.92;101497.78;5017003;28;45466;-65
2022/07/21 02:13:05;;;;;;;;;5.00;4.00;;;;;22.65;58.65;101430.34;5032354;28;45283;-65
2022/07/21 02:15:30;;;;;;;;;5.00;5.00;;;;;21.63;58.67;101268.03;5017355;28;45303;-65
2022/07/21 02:17:56;;;;;;;;;6.33;5.33;;;;;23.04;58.39;101507.38;5016785;28;46860;-65
2022/07/21 02:20:22;;;;;;;;;4.00;4.00;;;;;23.10;58.68;101513.84;5016960;28;45296;-66
2022/07/21 02:22:48;;;;;;;;;6.00;6.00;;;;;23.06;58.45;101516.13;5016847;28;45441;-66
2022/07/21 02:25:13;;;;;;;;;5.00;4.33;;;;;23.03;58.77;101497.56;5017054;28;45290;-66
2022/07/21 02:27:40;;;;;;;;;5.00;5.00;;;;;22.96;58.53;101486.69;5016900;28;45969;-67
2022/07/21 02:30:05;;;;;;;;;6.33;5.00;;;;;23.13;58.95;101511.53;5016989;28;45537;-67
2022/07/21 02:32:31;;;;;;;;;5.67;5.67;;;;;23.00;59.12;101500.66;5015762;28;45351;-66
2022/07/21 02:34:57;;;;;;;;;6.67;5.00;;;;;23.02;58.62;101509.44;5017231;28;45427;-66
2022/07/21 02:37:22;;;;;;;;;6.67;6.67;;;;;23.03;58.98;101508.41;5016789;28;45792;-67
2022/07/21 02:39:49;;;;;;;;;7.00;7.00;;;;;22.90;58.73;101486.69;5016614;28;45511;-67
2022/07/21 02:42:14;;;;;;;;;9.00;8.00;;;;;22.91;58.38;101493.78;5016771;28;45234;-67
2022/07/21 02:44:40;;;;;;;;;6.00;5.00;;;;;22.84;58.72;101471.28;5016689;28;45361;-66
2022/07/21 02:47:05;;;;;;;;;6.33;6.33;;;;;23.05;58.23;101512.59;5016543;28;45533;-66
2022/07/21 02:49:34;;;;;;;;;11.67;8.33;;;;;23.01;59.16;101514.03;5016937;28;45237;-67
2022/07/21 02:51:59;;;;;;;;;9.33;9.33;;;;;23.02;59.03;101517.56;5031963;28;45348;-67
2022/07/21 02:54:25;;;;;;;;;11.00;8.00;;;;;22.94;58.54;101510.47;5016835;28;45541;-67
2022/07/21 02:56:51;;;;;;;;;9.33;9.00;;;;;22.91;58.38;101518.19;5016657;28;45571;-66
2022/07/21 02:59:16;;;;;;;;;13.00;11.67;;;;;22.88;58.34;101529.47;5016847;28;45367;-65
2022/07/21 03:01:42;;;;;;;;;8.00;8.00;;;;;22.84;58.41;101533.63;5016991;28;45323;-66
2022/07/21 03:04:07;;;;;;;;;8.00;6.67;;;;;22.70;58.58;101519.16;5017026;28;45423;-66
2022/07/21 03:06:33;;;;;;;;;10.00;8.67;;;;;22.67;58.45;101516.88;5016714;28;46289;-67
2022/07/21 03:08:58;;;;;;;;;10.00;10.00;;;;;22.62;58.99;101514.75;5016313;28;45466;-66
2022/07/21 03:11:24;;;;;;;;;15.67;12.33;;;;;22.66;59.11;101532.31;5031888;28;45701;-65
2022/07/21 03:13:55;;;;;;;;;11.00;11.00;;;;;22.69;58.93;101536.47;5016860;28;45390;-66
2022/07/21 03:16:21;;;;;;;;;11.67;9.33;;;;;22.54;58.99;101509.53;5016442;28;45542;-66
2022/07/21 03:18:46;;;;;;;;;14.00;11.33;;;;;22.54;59.34;101512.25;5031688;28;45443;-67
2022/07/21 03:21:12;;;;;;;;;11.67;8.00;;;;;22.70;59.27;101532.72;5019822;28;45478;-66
2022/07/21 03:23:37;;;;;;;;;10.67;9.33;;;;;22.71;59.42;101529.81;5035464;28;45507;-66
2022/07/21 03:26:03;;;;;;;;;10.67;9.33;;;;;22.61;59.28;101531.22;5018591;28;48210;-65
2022/07/21 03:28:29;;;;;;;;;13.33;11.00;;;;;22.53;59.09;101521.41;5019710;28;45470;-68
2022/07/21 03:30:54;;;;;;;;;7.67;5.00;;;;;22.64;59.19;101538.97;5019884;28;45270;-65
2022/07/21 03:33:19;;;;;;;;;12.00;11.00;;;;;22.61;59.28;101544.78;5018879;28;45315;-66
2022/07/21 03:35:45;;;;;;;;;13.67;13.33;;;;;22.58;58.96;101542.47;5019636;28;46393;-67
2022/07/21 03:38:10;;;;;;;;;16.00;13.33;;;;;22.50;59.13;101535.38;5019861;28;45416;-66
2022/07/21 03:40:37;;;;;;;;;15.33;13.00;;;;;22.53;59.42;101537.66;5018497;28;45522;-66
2022/07/21 03:43:05;;;;;;;;;13.67;12.33;;;;;22.52;59.50;101549.56;5019965;28;45533;-65
2022/07/21 03:45:32;;;;;;;;;16.33;14.33;;;;;22.52;59.28;101551.44;5034684;28;46841;-67
2022/07/21 03:48:00;;;;;;;;;12.33;11.00;;;;;22.47;59.62;101546.63;5034456;28;45806;-66
2022/07/21 03:50:32;;;;;;;;;10.33;10.33;;;;;22.42;59.34;101541.78;5034824;28;45315;-66
2022/07/21 03:52:58;;;;;;;;;13.33;12.33;;;;;22.47;60.09;101549.31;5019476;28;45653;-65
2022/07/21 03:55:23;;;;;;;;;16.00;14.33;;;;;22.49;59.88;101557.25;5019099;28;45924;-67
2022/07/21 03:57:56;;;;;;;;;10.67;10.33;;;;;22.39;60.06;101544.06;5019101;28;45356;-66
2022/07/21 04:00:31;;;;;;;;;8.00;8.00;;;;;22.43;60.21;101553.50;5035069;28;45438;-67
2022/07/21 04:02:57;;;;;;;;;15.33;12.67;;;;;22.24;60.24;101525.28;5019569;28;45256;-66
2022/07/21 04:05:24;;;;;;;;;14.33;14.00;;;;;22.38;60.38;101566.78;5019180;28;46423;-66
2022/07/21 04:07:51;;;;;;;;;10.00;10.00;;;;;22.29;60.57;101557.16;5019086;28;45326;-67
2022/07/21 04:10:27;;;;;;;;;12.00;11.00;;;;;22.23;60.64;101558.81;5018031;28;45623;-66
2022/07/21 04:12:57;;;;;;;;;12.00;10.67;;;;;22.30;60.49;101561.53;5019460;28;45519;-65
2022/07/21 04:15:22;;;;;;;;;15.00;15.00;;;;;22.17;60.72;101538.75;5034247;28;47651;-65
2022/07/21 04:17:49;;;;;;;;;13.33;12.67;;;;;22.19;60.67;101537.72;5019126;28;45275;-67
2022/07/21 04:20:15;;;;;;;;;16.33;14.33;;;;;22.26;60.58;101554.88;5034630;28;45322;-67
2022/07/21 04:22:42;;;;;;;;;22.67;20.00;;;;;22.35;60.83;101575.31;5034728;28;45587;-67
2022/07/21 04:25:09;;;;;;;;;18.00;18.00;;;;;22.34;60.27;101573.66;5019099;28;45361;-65
2022/07/21 04:27:36;;;;;;;;;19.00;16.33;;;;;22.34;60.95;101570.94;5034180;28;45358;-67
2022/07/21 04:30:02;;;;;;;;;20.67;18.33;;;;;22.35;60.50;101580.75;5018574;28;45390;-66
2022/07/21 04:32:28;;;;;;;;;22.67;21.00;;;;;22.34;60.39;101571.78;5019039;28;45609;-66
2022/07/21 04:34:53;;;;;;;;;19.00;17.67;;;;;22.31;61.08;101565.94;5018758;28;45298;-65
2022/07/21 04:37:19;;;;;;;;;21.00;19.33;;;;;22.26;60.66;101552.16;5034046;28;45539;-66
2022/07/21 04:39:44;;;;;;;;;20.67;20.33;;;;;22.33;60.68;101563.84;5018999;28;45297;-66
2022/07/21 04:42:10;;;;;;;;;21.00;20.00;;;;;22.52;60.35;101583.94;5018937;28;45449;-67
2022/07/21 04:44:35;;;;;;;;;21.67;18.00;;;;;22.38;60.11;101550.53;5033509;28;46422;-67
2022/07/21 04:47:03;;;;;;;;;20.67;18.00;;;;;22.53;59.91;101570.19;5018300;28;45336;-67
2022/07/21 04:49:29;;;;;;;;;28.00;24.67;;;;;22.51;59.87;101576.84;5019100;28;45573;-66
2022/07/21 04:51:54;;;;;;;;;23.33;21.67;;;;;22.58;59.95;101583.13;5017592;28;45314;-68
2022/07/21 04:54:20;;;;;;;;;21.00;21.00;;;;;22.60;60.10;101581.88;5018555;28;46446;-66
2022/07/21 04:56:45;;;;;;;;;21.33;17.33;;;;;22.59;59.77;101579.38;5033900;28;45475;-66
2022/07/21 04:59:11;;;;;;;;;18.67;17.00;;;;;22.65;60.15;101587.56;5018900;28;45300;-66
2022/07/21 05:01:38;;;;;;;;;21.33;16.33;;;;;22.70;60.59;101586.94;5019017;28;45386;-68
2022/07/21 05:04:05;;;;;;;;;16.33;16.33;;;;;22.62;59.92;101578.97;5018654;28;45992;-67
2022/07/21 05:06:34;;;;;;;;;21.67;21.67;;;;;22.76;59.73;101600.50;5018662;28;45299;-65
2022/07/21 05:08:59;;;;;;;;;19.67;19.00;;;;;22.23;59.42;101504.66;5018604;28;45509;-67
2022/07/21 05:11:25;;;;;;;;;16.67;16.67;;;;;22.73;59.86;101592.78;5017105;28;45471;-67
2022/07/21 05:13:50;;;;;;;;;22.67;22.67;;;;;22.67;59.81;101588.19;5018119;28;45248;-66
2022/07/21 05:16:16;;;;;;;;;15.67;15.67;;;;;22.66;59.75;101577.53;5018477;28;45406;-67
2022/07/21 05:18:43;;;;;;;;;17.33;17.00;;;;;22.63;59.82;101565.25;5017127;28;45389;-67
2022/07/21 05:21:09;;;;;;;;;19.33;19.33;;;;;22.69;59.82;101572.53;5018242;28;45573;-67
2022/07/21 05:23:34;;;;;;;;;20.33;19.67;;;;;22.73;59.75;101571.09;5017792;28;45419;-65
2022/07/21 05:25:59;;;;;;;;;18.33;15.67;;;;;22.86;59.90;101593.91;5018164;28;45376;-65
2022/07/21 05:28:27;;;;;;;;;24.67;21.33;;;;;22.91;59.47;101599.53;5018041;28;45427;-66
2022/07/21 05:30:53;;;;;;;;;19.00;18.67;;;;;22.92;59.10;101590.38;5016523;28;45798;-66
2022/07/21 05:33:18;;;;;;;;;22.67;21.67;;;;;22.92;59.32;101598.50;5017309;28;46794;-66
2022/07/21 05:35:43;;;;;;;;;22.00;21.00;;;;;23.03;59.49;101597.91;5017381;28;45555;-66
2022/07/21 05:38:09;;;;;;;;;17.33;16.00;;;;;23.10;59.05;101604.19;5017343;28;45309;-66
2022/07/21 05:40:35;;;;;;;;;23.33;21.67;;;;;23.10;58.60;101590.63;5017708;28;45436;-67
2022/07/21 05:43:00;;;;;;;;;20.67;17.00;;;;;23.17;58.65;101596.03;5016357;28;46193;-67
2022/07/21 05:45:25;;;;;;;;;21.33;19.00;;;;;23.11;58.66;101573.31;5017265;28;45332;-67
2022/07/21 05:47:51;;;;;;;;;23.00;20.67;;;;;23.33;58.24;101599.22;5015625;28;45474;-67
2022/07/21 05:50:16;;;;;;;;;23.67;20.33;;;;;23.32;57.79;101597.53;5017486;28;45701;-67
2022/07/21 05:52:42;;;;;;;;;16.67;16.00;;;;;23.47;58.06;101610.09;5017181;28;45661;-66
2022/07/21 05:55:08;;;;;;;;;21.67;18.00;;;;;23.46;58.10;101619.25;5017242;28;45489;-68
2022/07/21 05:57:41;;;;;;;;;17.33;17.33;;;;;23.42;58.00;101607.13;5015617;28;45196;-67
2022/07/21 06:00:07;;;;;;;;;23.00;22.67;;;;;23.51;57.78;101605.91;5017073;28;45386;-67
2022/07/21 06:02:32;;;;;;;;;21.33;20.33;;;;;23.52;58.23;101611.13;5016834;28;45404;-67
2022/07/21 06:04:58;;;;;;;;;21.00;20.00;;;;;23.55;57.65;101623.44;5015300;28;45806;-66
2022/07/21 06:07:25;;;;;;;;;14.00;14.00;;;;;23.55;57.33;101628.88;5016458;28;45342;-66
2022/07/21 06:09:50;;;;;;;;;17.67;17.00;;;;;23.40;57.66;101595.66;5016693;28;45482;-67
2022/07/21 06:12:19;;;;;;;;;21.67;21.67;;;;;23.31;57.43;101600.47;5016434;28;46300;-66
2022/07/21 06:14:44;;;;;;;;;20.67;19.33;;;;;23.47;57.20;101631.78;5016191;28;45418;-67
2022/07/21 06:17:10;;;;;;;;;17.00;17.00;;;;;23.42;57.97;101634.28;5016554;28;46068;-67
2022/07/21 06:19:35;;;;;;;;;21.33;20.33;;;;;23.34;57.69;101611.72;5031926;28;45443;-67
2022/07/21 06:22:02;;;;;;;;;24.00;18.33;;;;;23.44;57.62;101615.94;5014820;28;47561;-67
2022/07/21 06:24:28;;;;;;;;;21.67;19.33;;;;;23.51;58.03;101627.63;5016474;28;45435;-67
2022/07/21 06:26:56;;;;;;;;;21.33;21.33;;;;;23.57;58.05;101633.06;5016688;28;45252;-68
2022/07/21 06:29:23;;;;;;;;;21.00;18.00;;;;;23.47;57.51;101616.34;5016981;28;45349;-67
2022/07/21 06:31:49;;;;;;;;;22.00;20.00;;;;;23.45;57.41;101612.16;5031513;28;47925;-66
2022/07/21 06:34:14;;;;;;;;;20.67;18.67;;;;;23.58;57.66;101626.59;5031418;28;46314;-66
2022/07/21 06:36:40;;;;;;;;;20.67;20.67;;;;;23.59;57.44;101636.41;5016703;28;45489;-68
2022/07/21 06:39:05;;;;;;;;;27.00;22.33;;;;;23.46;57.45;101614.69;5015466;28;45648;-68
2022/07/21 06:41:31;;;;;;;;;30.00;30.00;;;;;23.65;57.07;101640.19;5016159;28;45666;-66
2022/07/21 06:43:56;;;;;;;;;20.67;19.00;;;;;23.60;57.65;101632.66;5014939;28;45500;-65
2022/07/21 06:46:22;;;;;;;;;24.33;22.67;;;;;23.60;57.29;101621.78;5031730;28;45547;-67
2022/07/21 06:48:47;;;;;;;;;21.33;21.33;;;;;23.79;57.43;101636.41;5015280;28;45309;-67
2022/07/21 06:51:13;;;;;;;;;22.67;22.67;;;;;23.88;57.44;101634.34;5016368;28;45882;-68
2022/07/21 06:53:38;;;;;;;;;21.67;21.33;;;;;23.94;56.70;101628.88;5018400;28;45264;-67
2022/07/21 06:56:06;;;;;;;;;23.67;20.33;;;;;24.14;56.46;101644.31;5038321;28;45330;-67
2022/07/21 06:58:32;;;;;;;;;22.00;20.67;;;;;24.25;56.38;101641.81;5023051;28;45359;-67
2022/07/21 07:00:58;;;;;;;;;21.67;20.67;;;;;24.23;55.73;101643.06;5022691;28;46618;-68
2022/07/21 07:03:24;;;;;;;;;22.67;22.67;;;;;24.18;55.65;101623.81;5022580;28;45526;-68
2022/07/21 07:05:50;;;;;;;;;19.67;18.67;;;;;24.20;55.68;101621.72;5020813;28;45662;-68
2022/07/21 07:08:16;;;;;;;;;20.33;20.33;;;;;24.39;55.43;101641.78;5021448;28;45373;-67
2022/07/21 07:10:42;;;;;;;;;19.33;19.33;;;;;24.44;55.62;101644.72;5022512;28;45559;-68
2022/07/21 07:13:07;;;;;;;;;24.33;23.00;;;;;24.43;55.05;101637.63;5022309;28;45299;-68
2022/07/21 07:15:33;;;;;;;;;26.00;21.00;;;;;24.53;55.14;101649.69;5022363;28;45427;-66
2022/07/21 07:17:59;;;;;;;;;18.33;18.33;;;;;24.49;55.55;101643.03;5022843;28;45517;-67
2022/07/21 07:20:24;;;;;;;;;30.67;29.33;;;;;24.40;55.09;101627.97;5022534;28;45368;-66
2022/07/21 07:22:50;;;;;;;;;22.00;20.67;;;;;24.39;54.72;101636.34;5022142;28;45410;-68
2022/07/21 07:25:19;;;;;;;;;21.67;19.33;;;;;24.39;55.42;101648.06;5021260;28;45297;-66
2022/07/21 07:27:46;;;;;;;;;21.67;21.67;;;;;24.39;55.13;101641.78;5022860;28;45375;-67
2022/07/21 07:30:12;;;;;;;;;21.33;21.00;;;;;24.46;54.94;101653.50;5022222;28;46413;-67
2022/07/21 07:32:37;;;;;;;;;25.67;23.67;;;;;24.46;55.03;101654.31;5020703;28;45825;-68
2022/07/21 07:35:03;;;;;;;;;21.00;17.67;;;;;24.38;54.94;101646.38;5017270;28;45414;-66
2022/07/21 07:37:28;;;;;;;;;19.67;19.67;;;;;24.06;55.05;101592.94;5022560;28;45317;-66
2022/07/21 07:39:53;;;;;;;;;23.67;23.00;;;;;24.49;55.46;101661.22;5021977;28;46461;-67
2022/07/21 07:42:19;;;;;;;;;22.67;19.67;;;;;24.39;54.90;101639.91;5020741;28;45494;-68
2022/07/21 07:44:46;;;;;;;;;23.33;20.33;;;;;24.46;54.53;101634.47;5022180;28;45290;-68
2022/07/21 07:47:11;;;;;;;;;21.33;18.33;;;;;24.54;54.60;101654.09;5019938;28;45512;-69
2022/07/21 07:49:37;;;;;;;;;24.67;22.67;;;;;24.68;54.63;101657.59;5020816;28;46730;-67
2022/07/21 07:52:03;;;;;;;;;21.00;21.00;;;;;24.80;54.34;101664.00;5019213;28;45273;-67
2022/07/21 07:54:28;;;;;;;;;18.33;18.33;;;;;24.88;54.34;101662.97;5022052;28;45513;-67
2022/07/21 07:56:53;;;;;;;;;24.33;20.67;;;;;24.92;53.39;101663.34;5022210;28;45791;-66
2022/07/21 07:59:19;;;;;;;;;19.33;18.33;;;;;24.72;54.34;101664.28;5021968;28;45463;-66
2022/07/21 08:01:44;;;;;;;;;25.00;22.67;;;;;24.79;53.91;101672.41;5020526;28;45441;-67
2022/07/21 08:04:10;;;;;;;;;21.33;21.33;;;;;24.85;54.06;101675.09;5021993;28;45315;-68
2022/07/21 08:06:35;;;;;;;;;25.33;22.00;;;;;24.90;54.32;101677.19;5016932;28;45574;-65
2022/07/21 08:09:00;;;;;;;;;21.33;20.33;;;;;24.96;53.70;101670.84;5033818;28;47570;-67
2022/07/21 08:11:26;;;;;;;;;23.67;23.67;;;;;24.99;53.56;101677.75;5018691;28;45395;-68
2022/07/21 08:13:52;;;;;;;;;25.67;24.00;;;;;25.03;53.65;101677.16;5018800;28;45241;-67
2022/07/21 08:16:17;;;;;;;;;26.33;22.67;;;;;25.00;53.09;101660.41;5018607;28;45328;-66
2022/07/21 08:18:43;;;;;;;;;21.33;20.33;;;;;25.05;53.44;101685.94;5018481;28;47315;-67
2022/07/21 08:21:09;;;;;;;;;23.33;20.33;;;;;24.24;53.67;101557.78;5017051;28;46352;-69
2022/07/21 08:23:35;;;;;;;;;29.33;24.33;;;;;25.02;53.44;101672.72;5018676;28;46090;-67
2022/07/21 08:26:00;;;;;;;;;25.33;23.33;;;;;25.00;53.48;101671.28;5018692;28;45324;-66
2022/07/21 08:28:26;;;;;;;;;24.00;21.00;;;;;25.10;53.27;101691.56;5014907;28;45769;-68
2022/07/21 08:30:51;;;;;;;;;21.67;20.33;;;;;25.11;53.09;101693.22;5018418;28;45513;-68
2022/07/21 08:33:17;;;;;;;;;23.33;19.33;;;;;25.14;53.05;101684.63;5018492;28;45458;-66
2022/07/21 08:35:42;;;;;;;;;30.33;27.33;;;;;25.20;53.38;101672.00;5018536;28;45530;-67
2022/07/21 08:38:11;;;;;;;;;25.00;23.33;;;;;25.26;52.53;101667.59;5017798;28;46816;-66
2022/07/21 08:40:44;;;;;;;;;24.00;22.00;;;;;25.45;52.34;101691.16;5033095;28;46119;-66
2022/07/21 08:43:13;;;;;;;;;19.67;18.00;;;;;25.63;52.46;101688.50;5018020;28;45324;-67
2022/07/21 08:45:39;;;;;;;;;23.33;23.33;;;;;25.84;51.88;101695.50;5018585;28;45343;-68
2022/07/21 08:48:06;;;;;;;;;25.67;23.33;;;;;26.01;51.11;101702.03;5017654;28;46810;-68
2022/07/21 08:50:37;;;;;;;;;22.67;22.67;;;;;26.14;51.27;101692.09;5033274;28;45358;-67
2022/07/21 08:53:03;;;;;;;;;23.67;23.67;;;;;26.35;50.89;101698.00;5018218;28;45415;-67
2022/07/21 08:55:34;;;;;;;;;23.67;23.67;;;;;26.48;51.42;101698.94;5018230;28;45352;-66
2022/07/21 08:58:00;;;;;;;;;17.33;17.33;;;;;26.53;50.65;101704.53;5017833;28;46461;-67
2022/07/21 09:00:26;;;;;;;;;23.67;23.67;;;;;26.47;50.18;101694.53;5032975;28;45254;-66
2022/07/21 09:03:10;;;;;;;;;25.00;23.00;;;;;26.47;50.12;101694.53;5024496;28;45556;-67
2022/07/21 09:05:36;;;;;;;;;30.33;24.67;;;;;26.50;50.04;101694.06;5018131;28;45587;-67
2022/07/21 09:08:02;;;;;;;;;25.67;21.33;;;;;26.11;49.82;101627.97;4999728;28;47198;-68
2022/07/21 09:10:29;;;;;;;;;24.33;22.67;;;;;26.54;49.80;101684.38;5016353;28;45623;-67
2022/07/21 09:12:58;;;;;;;;;27.33;25.67;;;;;26.49;49.92;101673.31;5017861;28;45520;-67
2022/07/21 09:15:26;;;;;;;;;25.67;25.67;;;;;26.57;49.70;101681.19;5017836;28;45323;-66
2022/07/21 09:18:08;;;;;;;;;21.67;20.00;;;;;26.64;49.18;101690.16;5016174;28;46266;-67
2022/07/21 09:20:35;;;;;;;;;25.00;23.67;;;;;26.11;49.70;101608.06;5016978;28;45549;-66
2022/07/21 09:23:12;;;;;;;;;25.00;25.00;;;;;26.74;49.54;101695.88;4999087;28;45537;-66
2022/07/21 09:25:41;;;;;;;;;21.33;19.00;;;;;26.81;49.36;101702.09;5017597;28;45460;-66
2022/07/21 09:28:13;;;;;;;;;18.67;17.67;;;;;26.86;49.10;101694.06;5017065;28;45855;-67
2022/07/21 09:31:08;;;;;;;;;22.67;19.33;;;;;26.90;48.82;101695.28;5017231;28;45225;-67
2022/07/21 09:33:45;;;;;;;;;23.33;20.67;;;;;26.94;48.98;101682.00;5017428;28;45427;-68
2022/07/21 09:36:12;;;;;;;;;19.00;17.33;;;;;27.03;48.50;101693.44;5017241;28;45242;-67
2022/07/21 09:38:43;;;;;;;;;25.00;21.00;;;;;27.07;48.51;101689.22;4998654;28;48062;-67
2022/07/21 09:41:12;;;;;;;;;27.00;25.33;;;;;27.02;48.27;101698.09;5016891;28;45548;-67
2022/07/21 09:43:42;;;;;;;;;20.00;16.33;;;;;26.84;48.93;101671.66;5015688;28;45362;-67
2022/07/21 09:46:18;;;;;;;;;22.00;21.00;;;;;26.94;48.03;101698.38;5017069;28;45616;-68
2022/07/21 09:48:47;;;;;;;;;21.33;18.33;;;;;26.91;48.24;101702.41;5016536;28;46096;-68
2022/07/21 09:51:23;;;;;;;;;13.33;13.33;;;;;26.86;48.58;101694.06;5017262;28;45503;-67
2022/07/21 09:53:51;;;;;;;;;24.00;22.00;;;;;26.88;48.30;101693.84;5017367;28;45502;-67
2022/07/21 09:56:18;;;;;;;;;21.67;19.67;;;;;26.39;48.27;101616.56;5017305;28;45420;-66
2022/07/21 09:58:46;;;;;;;;;16.67;16.67;;;;;26.84;48.85;101685.28;5011134;28;48058;-68
2022/07/21 10:01:12;;;;;;;;;24.67;20.33;;;;;26.89;48.58;101688.16;5016718;28;45524;-68
2022/07/21 10:03:38;;;;;;;;;14.67;14.67;;;;;26.85;48.50;101676.03;5032217;28;45514;-67
2022/07/21 10:06:06;;;;;;;;;30.00;27.67;;;;;26.90;47.94;101678.91;5017303;28;45541;-67
2022/07/21 10:08:36;;;;;;;;;21.00;21.00;;;;;26.95;48.31;101668.13;5014921;28;47462;-69
2022/07/21 10:11:02;;;;;;;;;17.67;17.00;;;;;26.95;48.60;101670.84;5016691;28;45472;-66
2022/07/21 10:13:27;;;;;;;;;22.00;20.00;;;;;27.10;47.63;101677.84;5015216;28;45432;-67
2022/07/21 10:15:53;;;;;;;;;22.67;20.67;;;;;27.09;47.11;101673.44;5015342;28;45519;-65
2022/07/21 10:18:22;;;;;;;;;23.00;22.00;;;;;27.11;46.76;101672.16;5016364;28;46187;-67
2022/07/21 10:20:55;;;;;;;;;24.67;22.00;;;;;26.93;48.23;101656.59;5016520;28;45525;-66
2022/07/21 10:23:37;;;;;;;;;18.33;17.33;;;;;27.06;47.70;101672.03;5014967;28;45390;-68
2022/07/21 10:26:05;;;;;;;;;24.67;21.67;;;;;27.12;47.36;101673.81;5031965;28;45496;-66
2022/07/21 10:28:31;;;;;;;;;19.67;19.67;;;;;26.87;47.15;101652.09;5030993;28;47071;-67
2022/07/21 10:30:58;;;;;;;;;18.00;16.67;;;;;27.10;47.28;101688.75;5015893;28;45348;-68
2022/07/21 10:33:47;;;;;;;;;15.67;15.67;;;;;27.11;47.91;101674.88;5016295;28;45552;-70
2022/07/21 10:36:28;;;;;;;;;18.33;18.33;;;;;27.14;46.88;101689.97;4996324;28;45287;-68
2022/07/21 10:39:05;;;;;;;;;18.67;17.67;;;;;27.12;46.38;101686.63;5014679;28;47257;-66
2022/07/21 10:41:48;;;;;;;;;20.00;16.33;;;;;27.10;47.05;101688.75;5014581;28;45668;-68
2022/07/21 10:44:30;;;;;;;;;24.67;23.00;;;;;27.14;47.41;101689.97;5015064;28;45331;-67
2022/07/21 10:46:58;;;;;;;;;21.33;18.67;;;;;27.20;47.21;101689.03;5016304;28;45700;-68
2022/07/21 10:49:52;;;;;;;;;17.33;16.33;;;;;26.83;46.73;101615.41;5016098;28;45704;-68
2022/07/21 10:52:35;;;;;;;;;25.67;23.33;;;;;27.23;46.96;101683.09;5015998;28;45556;-66
2022/07/21 10:55:10;;;;;;;;;23.00;20.00;;;;;27.28;47.56;101686.00;5015483;28;45428;-67
2022/07/21 10:57:41;;;;;;;;;18.33;18.33;;;;;27.20;46.49;101667.19;5015925;28;45503;-67
2022/07/21 11:00:27;;;;;;;;;18.00;17.33;;;;;27.26;47.12;101680.75;5030943;28;48931;-68
2022/07/21 11:02:59;;;;;;;;;21.00;19.33;;;;;27.19;46.56;101665.53;5014118;28;45306;-68
2022/07/21 11:05:28;;;;;;;;;20.00;17.67;;;;;27.15;47.69;101669.78;5015759;28;45470;-67
2022/07/21 11:08:17;;;;;;;;;29.67;27.67;;;;;27.09;46.95;101665.25;5016073;28;45253;-67
2022/07/21 11:10:52;;;;;;;;;26.00;26.00;;;;;27.15;46.64;101680.72;5015799;28;45356;-67
2022/07/21 11:13:38;;;;;;;;;18.00;18.00;;;;;26.98;46.64;101664.94;5015863;28;45293;-68
2022/07/21 11:16:04;;;;;;;;;19.33;17.33;;;;;26.77;47.18;101632.69;5031190;28;45558;-68
2022/07/21 11:18:31;;;;;;;;;18.33;17.33;;;;;26.94;47.65;101663.72;5015967;28;45290;-67